createdAt,value
2018-07-22T00:01:17.471Z,20.24
2018-07-22T00:03:48.471Z,20.31
2018-07-22T00:06:19.495Z,20.30
2018-07-22T00:08:50.462Z,20.29
2018-07-22T00:11:21.738Z,20.22
2018-07-22T00:13:52.593Z,20.28
2018-07-22T00:16:23.498Z,20.24
2018-07-22T00:18:54.479Z,20.26
2018-07-22T00:21:25.520Z,20.22
2018-07-22T00:23:56.502Z,20.24
2018-07-22T00:26:27.489Z,20.31
2018-07-22T00:28:58.649Z,20.18
2018-07-22T00:31:29.484Z,20.26
2018-07-22T00:34:00.493Z,20.33
2018-07-22T00:36:31.485Z,20.35
2018-07-22T00:39:02.449Z,20.28
2018-07-22T00:41:33.497Z,20.26
2018-07-22T00:44:04.510Z,20.35
2018-07-22T00:46:35.489Z,20.26
2018-07-22T00:49:06.581Z,20.12
2018-07-22T00:51:37.513Z,20.32
2018-07-22T00:54:08.660Z,20.18
2018-07-22T00:56:39.561Z,20.27
2018-07-22T00:59:10.506Z,20.22
2018-07-22T01:01:41.461Z,20.21
2018-07-22T01:04:12.481Z,20.22
2018-07-22T01:06:43.496Z,20.06
2018-07-22T01:09:14.472Z,20.18
2018-07-22T01:11:45.538Z,19.92
2018-07-22T01:14:16.480Z,19.96
2018-07-22T01:16:47.481Z,19.96
2018-07-22T01:19:18.497Z,19.93
2018-07-22T01:21:49.476Z,19.88
2018-07-22T01:24:20.551Z,19.86
2018-07-22T01:26:51.492Z,19.76
2018-07-22T01:29:22.504Z,19.55
2018-07-22T01:31:53.472Z,19.67
2018-07-22T01:34:24.489Z,19.57
2018-07-22T01:36:55.500Z,19.58
2018-07-22T01:39:26.638Z,19.59
2018-07-22T01:41:57.482Z,19.66
2018-07-22T01:44:28.479Z,19.63
2018-07-22T01:46:59.457Z,19.50
2018-07-22T01:49:30.773Z,19.48
2018-07-22T01:52:01.558Z,19.42
2018-07-22T01:54:32.496Z,19.31
2018-07-22T01:57:03.477Z,19.44
2018-07-22T01:59:34.465Z,19.56
2018-07-22T02:02:05.525Z,19.64
2018-07-22T02:04:36.440Z,19.59
2018-07-22T02:07:07.476Z,19.64
2018-07-22T02:09:38.614Z,19.65
2018-07-22T02:12:09.497Z,19.63
2018-07-22T02:14:40.483Z,19.63
2018-07-22T02:17:11.523Z,19.64
2018-07-22T02:19:42.525Z,19.49
2018-07-22T02:22:13.503Z,19.43
2018-07-22T02:24:44.475Z,19.48
2018-07-22T02:27:15.474Z,19.41
2018-07-22T02:29:46.626Z,19.33
2018-07-22T02:32:17.491Z,19.45
2018-07-22T02:34:48.501Z,19.48
2018-07-22T02:37:19.478Z,19.35
2018-07-22T02:39:50.537Z,19.44
2018-07-22T02:42:21.497Z,19.44
2018-07-22T02:44:52.489Z,19.42
2018-07-22T02:47:23.488Z,19.38
2018-07-22T02:49:54.547Z,19.27
2018-07-22T02:52:25.510Z,19.27
2018-07-22T02:54:56.496Z,19.36
2018-07-22T02:57:27.485Z,19.31
2018-07-22T02:59:58.513Z,19.40
2018-07-22T03:02:29.502Z,19.36
2018-07-22T03:05:00.513Z,19.40
2018-07-22T03:07:31.482Z,19.19
2018-07-22T03:10:02.501Z,19.28
2018-07-22T03:12:33.500Z,19.38
2018-07-22T03:15:04.493Z,19.38
2018-07-22T03:17:35.461Z,19.38
2018-07-22T03:20:06.580Z,19.30
2018-07-22T03:22:37.488Z,19.42
2018-07-22T03:25:08.533Z,19.07
2018-07-22T03:27:39.469Z,18.92
2018-07-22T03:30:10.497Z,18.83
2018-07-22T03:32:41.706Z,18.99
2018-07-22T03:35:12.574Z,19.08
2018-07-22T03:37:43.505Z,19.19
2018-07-22T03:40:15.237Z,19.14
2018-07-22T03:42:46.355Z,19.16
2018-07-22T03:45:17.387Z,19.18
2018-07-22T03:47:48.436Z,19.10
2018-07-22T03:50:19.461Z,19.10
2018-07-22T03:52:50.456Z,19.07
2018-07-22T03:55:21.477Z,18.97
2018-07-22T03:57:52.483Z,19.09
2018-07-22T04:00:23.518Z,18.83
2018-07-22T04:02:55.188Z,18.95
2018-07-22T04:05:26.441Z,18.75
2018-07-22T04:07:57.483Z,18.73
2018-07-22T04:10:28.457Z,18.61
2018-07-22T04:12:59.516Z,18.59
2018-07-22T04:15:30.481Z,18.61
2018-07-22T04:18:01.478Z,18.47
2018-07-22T04:20:32.489Z,18.49
2018-07-22T04:23:03.456Z,18.49
2018-07-22T04:25:34.509Z,18.52
2018-07-22T04:28:05.495Z,18.68
2018-07-22T04:30:36.547Z,18.70
2018-07-22T04:33:07.501Z,18.60
2018-07-22T04:35:38.501Z,18.54
2018-07-22T04:38:09.476Z,18.72
2018-07-22T04:40:40.493Z,18.77
2018-07-22T04:43:11.477Z,18.94
2018-07-22T04:45:42.540Z,18.87
2018-07-22T04:48:13.505Z,18.98
2018-07-22T04:50:44.462Z,19.01
2018-07-22T04:53:15.477Z,19.02
2018-07-22T04:55:46.527Z,19.02
2018-07-22T04:58:17.488Z,19.06
2018-07-22T05:00:48.496Z,19.16
2018-07-22T05:03:19.480Z,19.27
2018-07-22T05:05:50.490Z,19.23
2018-07-22T05:08:21.494Z,19.37
2018-07-22T05:10:52.495Z,19.41
2018-07-22T05:13:23.485Z,19.53
2018-07-22T05:15:54.505Z,19.57
2018-07-22T05:18:25.460Z,19.54
2018-07-22T05:20:56.505Z,19.66
2018-07-22T05:23:27.507Z,19.45
2018-07-22T05:25:58.500Z,19.64
2018-07-22T05:28:29.504Z,19.55
2018-07-22T05:31:00.511Z,19.47
2018-07-22T05:33:31.478Z,19.47
2018-07-22T05:36:02.528Z,19.44
2018-07-22T05:38:33.484Z,19.28
2018-07-22T05:41:04.466Z,19.32
2018-07-22T05:43:35.855Z,19.38
2018-07-22T05:46:07.267Z,19.35
2018-07-22T05:48:38.444Z,19.57
2018-07-22T05:51:09.517Z,19.57
2018-07-22T05:53:40.490Z,19.49
2018-07-22T05:56:11.493Z,19.67
2018-07-22T05:58:42.481Z,19.98
2018-07-22T06:01:13.497Z,20.04
2018-07-22T06:03:44.509Z,19.55
2018-07-22T06:06:15.497Z,19.72
2018-07-22T06:08:46.501Z,19.80
2018-07-22T06:11:17.755Z,19.97
2018-07-22T06:13:48.578Z,19.99
2018-07-22T06:16:19.592Z,20.00
2018-07-22T06:18:50.620Z,20.26
2018-07-22T06:21:21.613Z,20.60
2018-07-22T06:23:52.994Z,20.62
2018-07-22T06:26:24.197Z,20.61
2018-07-22T06:28:55.512Z,20.79
2018-07-22T06:31:26.508Z,20.75
2018-07-22T06:33:57.491Z,20.89
2018-07-22T06:36:28.510Z,20.92
2018-07-22T06:38:59.509Z,20.98
2018-07-22T06:41:30.594Z,21.23
2018-07-22T06:44:01.506Z,21.16
2018-07-22T06:46:32.547Z,21.27
2018-07-22T06:49:03.505Z,21.28
2018-07-22T06:51:34.517Z,21.11
2018-07-22T06:54:05.480Z,21.31
2018-07-22T06:56:36.531Z,21.34
2018-07-22T06:59:07.497Z,21.51
2018-07-22T07:01:39.299Z,21.39
2018-07-22T07:04:10.396Z,21.32
2018-07-22T07:06:41.514Z,21.26
2018-07-22T07:09:13.381Z,21.49
2018-07-22T07:11:44.469Z,21.64
2018-07-22T07:14:15.525Z,21.56
2018-07-22T07:16:46.496Z,21.71
2018-07-22T07:19:17.458Z,21.52
2018-07-22T07:21:48.514Z,21.97
2018-07-22T07:24:19.810Z,21.83
2018-07-22T07:26:50.278Z,22.32
2018-07-22T07:29:21.546Z,22.48
2018-07-22T07:31:52.505Z,22.56
2018-07-22T07:34:23.543Z,22.45
2018-07-22T07:36:54.520Z,22.78
2018-07-22T07:39:25.567Z,22.86
2018-07-22T07:41:56.496Z,22.83
2018-07-22T07:44:27.507Z,22.95
2018-07-22T07:46:58.480Z,22.53
2018-07-22T07:49:29.457Z,22.65
2018-07-22T07:52:00.481Z,23.21
2018-07-22T07:54:31.452Z,22.90
2018-07-22T07:57:02.459Z,23.06
2018-07-22T07:59:33.464Z,23.48
2018-07-22T08:02:04.550Z,23.35
2018-07-22T08:04:35.482Z,23.65
2018-07-22T08:07:06.753Z,23.46
2018-07-22T08:09:38.757Z,23.71
2018-07-22T08:12:09.592Z,24.00
2018-07-22T08:14:41.047Z,23.97
2018-07-22T08:17:12.392Z,24.25
2018-07-22T08:19:44.613Z,24.04
2018-07-22T08:22:15.646Z,24.10
2018-07-22T08:24:47.059Z,23.55
2018-07-22T08:27:18.267Z,23.69
2018-07-22T08:29:49.708Z,24.05
2018-07-22T08:32:23.301Z,24.21
2018-07-22T08:34:54.597Z,25.16
2018-07-22T08:37:25.599Z,25.15
2018-07-22T08:39:56.553Z,25.12
2018-07-22T08:42:27.506Z,24.64
2018-07-22T08:44:58.514Z,25.13
2018-07-22T08:47:30.486Z,25.56
2018-07-22T08:50:01.466Z,25.53
2018-07-22T08:52:32.501Z,25.84
2018-07-22T08:55:04.294Z,25.40
2018-07-22T08:57:35.394Z,25.62
2018-07-22T09:00:07.705Z,26.15
2018-07-22T09:02:38.588Z,25.89
2018-07-22T09:05:09.640Z,25.48
2018-07-22T09:07:41.009Z,25.51
2018-07-22T09:10:12.288Z,25.51
2018-07-22T09:12:43.401Z,25.56
2018-07-22T09:15:14.522Z,25.67
2018-07-22T09:17:45.747Z,25.79
2018-07-22T09:20:16.658Z,25.66
2018-07-22T09:22:47.658Z,26.65
2018-07-22T09:25:19.358Z,26.18
2018-07-22T09:27:50.459Z,26.74
2018-07-22T09:30:21.550Z,26.89
2018-07-22T09:32:53.226Z,26.33
2018-07-22T09:35:24.366Z,26.73
2018-07-22T09:37:55.529Z,26.91
2018-07-22T09:40:26.505Z,27.82
2018-07-22T09:42:57.575Z,27.03
2018-07-22T09:45:28.506Z,27.24
2018-07-22T09:47:59.509Z,27.49
2018-07-22T09:50:30.436Z,27.49
2018-07-22T09:53:01.478Z,28.61
2018-07-22T09:55:32.488Z,28.98
2018-07-22T09:58:03.501Z,28.63
2018-07-22T10:00:41.340Z,29.04
2018-07-22T10:03:12.365Z,29.02
2018-07-22T10:05:43.405Z,29.26
2018-07-22T10:08:14.586Z,29.56
2018-07-22T10:10:45.593Z,30.16
2018-07-22T10:13:16.714Z,28.16
2018-07-22T10:15:47.597Z,28.51
2018-07-22T10:18:18.523Z,27.77
2018-07-22T10:20:49.558Z,28.38
2018-07-22T10:23:20.610Z,29.20
2018-07-22T10:25:51.529Z,29.48
2018-07-22T10:28:22.517Z,29.01
2018-07-22T10:30:53.516Z,28.87
2018-07-22T10:33:24.537Z,29.69
2018-07-22T10:35:55.536Z,28.84
2018-07-22T10:38:26.517Z,28.35
2018-07-22T10:40:57.522Z,28.34
2018-07-22T10:43:28.518Z,28.57
2018-07-22T10:45:59.468Z,29.68
2018-07-22T10:48:30.542Z,29.26
2018-07-22T10:51:01.501Z,29.04
2018-07-22T10:53:32.469Z,29.65
2018-07-22T10:56:03.554Z,30.01
2018-07-22T10:58:34.468Z,28.86
2018-07-22T11:01:05.505Z,30.54
2018-07-22T11:03:36.481Z,30.96
2018-07-22T11:06:07.514Z,30.20
2018-07-22T11:08:38.476Z,30.06
2018-07-22T11:11:09.525Z,30.79
2018-07-22T11:13:40.505Z,30.29
2018-07-22T11:16:11.469Z,29.91
2018-07-22T11:18:42.507Z,30.66
2018-07-22T11:21:13.604Z,29.63
2018-07-22T11:23:44.541Z,29.16
2018-07-22T11:26:15.505Z,29.37
2018-07-22T11:28:46.591Z,28.99
2018-07-22T11:31:17.458Z,27.78
2018-07-22T11:33:48.510Z,28.03
2018-07-22T11:36:19.497Z,28.46
2018-07-22T11:38:50.489Z,27.68
2018-07-22T11:41:21.460Z,27.53
2018-07-22T11:43:52.528Z,27.94
2018-07-22T11:46:24.380Z,27.68
2018-07-22T11:48:55.465Z,28.11
2018-07-22T11:51:26.511Z,28.24
2018-07-22T11:53:57.500Z,28.41
2018-07-22T11:56:28.473Z,28.87
2018-07-22T11:58:59.450Z,30.42
2018-07-22T12:01:30.543Z,30.80
2018-07-22T12:04:01.525Z,31.24
2018-07-22T12:06:32.506Z,31.15
2018-07-22T12:09:03.626Z,30.10
2018-07-22T12:11:34.506Z,30.99
2018-07-22T12:14:05.547Z,31.21
2018-07-22T12:16:36.507Z,31.38
2018-07-22T12:19:07.526Z,32.03
2018-07-22T12:21:38.478Z,31.17
2018-07-22T12:24:09.481Z,31.78
2018-07-22T12:26:40.493Z,31.81
2018-07-22T12:29:11.495Z,30.84
2018-07-22T12:31:42.480Z,31.61
2018-07-22T12:34:13.477Z,32.19
2018-07-22T12:36:44.461Z,32.31
2018-07-22T12:39:15.500Z,32.01
2018-07-22T12:41:46.542Z,32.26
2018-07-22T12:44:17.507Z,32.69
2018-07-22T12:46:48.497Z,32.72
2018-07-22T12:49:19.493Z,32.27
2018-07-22T12:51:50.538Z,30.90
2018-07-22T12:54:21.505Z,32.83
2018-07-22T12:56:52.526Z,30.65
2018-07-22T12:59:23.500Z,30.96
2018-07-22T13:01:54.480Z,30.89
2018-07-22T13:04:25.524Z,31.71
2018-07-22T13:06:56.607Z,29.38
2018-07-22T13:09:27.526Z,29.93
2018-07-22T13:11:58.517Z,29.88
2018-07-22T13:14:29.529Z,29.80
2018-07-22T13:17:00.495Z,29.95
2018-07-22T13:19:31.543Z,30.12
2018-07-22T13:22:02.519Z,29.71
2018-07-22T13:24:33.513Z,29.53
2018-07-22T13:27:04.513Z,30.86
2018-07-22T13:29:35.519Z,30.31
2018-07-22T13:32:06.497Z,31.08
2018-07-22T13:34:37.509Z,30.85
2018-07-22T13:37:08.860Z,31.52
2018-07-22T13:39:39.285Z,30.31
2018-07-22T13:42:10.388Z,29.24
2018-07-22T13:44:41.470Z,30.22
2018-07-22T13:47:12.510Z,30.49
2018-07-22T13:49:43.602Z,29.72
2018-07-22T13:52:14.486Z,29.63
2018-07-22T13:54:45.505Z,28.36
2018-07-22T13:57:16.497Z,28.01
2018-07-22T13:59:47.509Z,27.67
2018-07-22T14:02:18.498Z,27.43
2018-07-22T14:04:50.231Z,27.02
2018-07-22T14:07:21.406Z,26.85
2018-07-22T14:09:52.461Z,26.91
2018-07-22T14:12:23.457Z,26.16
2018-07-22T14:14:54.476Z,26.30
2018-07-22T14:17:25.472Z,25.99
2018-07-22T14:19:56.505Z,25.65
2018-07-22T14:22:27.760Z,25.28
2018-07-22T14:24:58.656Z,25.55
2018-07-22T14:27:29.522Z,24.92
2018-07-22T14:30:00.534Z,25.04
2018-07-22T14:32:31.755Z,24.94
2018-07-22T14:35:02.620Z,24.96
2018-07-22T14:37:33.624Z,25.20
2018-07-22T14:40:05.303Z,24.96
2018-07-22T14:42:36.363Z,25.07
2018-07-22T14:45:09.451Z,25.14
2018-07-22T14:47:40.500Z,25.36
2018-07-22T14:50:11.712Z,25.33
2018-07-22T14:52:42.602Z,25.22
2018-07-22T14:55:13.715Z,25.24
2018-07-22T14:57:44.553Z,25.38
2018-07-22T15:00:15.520Z,25.45
2018-07-22T15:02:46.485Z,25.69
2018-07-22T15:05:17.538Z,26.18
2018-07-22T15:07:48.718Z,26.44
2018-07-22T15:10:19.765Z,26.45
2018-07-22T15:12:50.714Z,26.46
2018-07-22T15:15:21.596Z,26.40
2018-07-22T15:17:53.573Z,26.75
2018-07-22T15:20:24.513Z,26.76
2018-07-22T15:22:56.298Z,26.56
2018-07-22T15:25:27.483Z,27.17
2018-07-22T15:27:58.521Z,26.88
2018-07-22T15:30:29.510Z,27.33
2018-07-22T15:33:00.537Z,27.10
2018-07-22T15:35:31.668Z,26.75
2018-07-22T15:38:02.540Z,26.46
2018-07-22T15:40:33.526Z,26.21
2018-07-22T15:43:05.013Z,26.42
2018-07-22T15:45:36.297Z,26.30
2018-07-22T15:48:07.558Z,25.91
2018-07-22T15:50:38.504Z,25.97
2018-07-22T15:53:09.461Z,25.69
2018-07-22T15:55:40.756Z,25.72
2018-07-22T15:58:11.492Z,25.41
2018-07-22T16:00:42.534Z,25.13
2018-07-22T16:03:13.431Z,25.56
2018-07-22T16:05:44.737Z,25.48
2018-07-22T16:08:16.609Z,25.55
2018-07-22T16:10:47.579Z,25.27
2018-07-22T16:13:18.493Z,25.26
2018-07-22T16:15:49.497Z,25.14
2018-07-22T16:18:20.625Z,24.64
2018-07-22T16:20:52.033Z,25.52
2018-07-22T16:23:23.421Z,25.39
2018-07-22T16:25:54.512Z,24.52
2018-07-22T16:28:25.666Z,24.78
2018-07-22T16:30:56.573Z,25.13
2018-07-22T16:33:27.500Z,24.66
2018-07-22T16:35:58.533Z,24.50
2018-07-22T16:38:29.581Z,24.50
2018-07-22T16:41:00.803Z,24.61
2018-07-22T16:43:31.599Z,24.74
2018-07-22T16:46:02.564Z,24.73
2018-07-22T16:48:33.477Z,24.72
2018-07-22T16:51:04.525Z,24.58
2018-07-22T16:53:35.530Z,24.32
2018-07-22T16:56:06.526Z,24.58
2018-07-22T16:58:37.574Z,24.81
2018-07-22T17:01:08.575Z,24.45
2018-07-22T17:03:39.497Z,24.30
2018-07-22T17:06:11.329Z,24.02
2018-07-22T17:08:42.435Z,23.78
2018-07-22T17:11:13.533Z,23.80
2018-07-22T17:13:44.604Z,23.65
2018-07-22T17:16:15.579Z,23.55
2018-07-22T17:18:46.516Z,23.72
2018-07-22T17:21:17.507Z,23.44
2018-07-22T17:23:48.586Z,23.91
2018-07-22T17:26:19.510Z,23.70
2018-07-22T17:28:50.541Z,23.50
2018-07-22T17:31:21.688Z,23.39
2018-07-22T17:33:52.606Z,23.34
2018-07-22T17:36:23.656Z,23.36
2018-07-22T17:38:54.645Z,23.50
2018-07-22T17:41:25.628Z,23.20
2018-07-22T17:43:56.506Z,23.32
2018-07-22T17:46:27.662Z,23.41
2018-07-22T17:51:47.417Z,23.39
2018-07-22T17:54:18.514Z,23.54
2018-07-22T17:56:49.530Z,23.39
2018-07-22T17:59:20.494Z,23.38
2018-07-22T18:01:51.494Z,23.29
2018-07-22T18:04:22.503Z,23.49
2018-07-22T18:06:53.537Z,23.41
2018-07-22T18:09:24.488Z,23.58
2018-07-22T18:11:55.504Z,23.70
2018-07-22T18:14:26.544Z,23.46
2018-07-22T18:16:57.513Z,23.35
2018-07-22T18:19:28.501Z,23.37
2018-07-22T18:21:59.486Z,23.58
2018-07-22T18:24:30.490Z,23.45
2018-07-22T18:27:01.507Z,23.19
2018-07-22T18:29:32.529Z,23.22
2018-07-22T18:32:03.507Z,22.99
2018-07-22T18:34:34.506Z,22.88
2018-07-22T18:37:05.740Z,23.00
2018-07-22T18:39:36.547Z,22.88
2018-07-22T18:42:07.541Z,23.05
2018-07-22T18:44:38.513Z,23.03
2018-07-22T18:47:09.524Z,23.10
2018-07-22T18:49:40.595Z,23.25
2018-07-22T18:52:11.497Z,23.09
2018-07-22T18:54:42.494Z,23.11
2018-07-22T18:57:13.493Z,23.32
2018-07-22T18:59:44.522Z,23.16
2018-07-22T19:02:15.514Z,23.27
2018-07-22T19:04:46.488Z,23.14
2018-07-22T19:07:17.504Z,23.29
2018-07-22T19:09:48.535Z,23.27
2018-07-22T19:12:19.520Z,23.10
2018-07-22T19:14:50.581Z,22.94
2018-07-22T19:17:21.521Z,23.03
2018-07-22T19:19:52.511Z,22.91
2018-07-22T19:22:23.531Z,22.82
2018-07-22T19:24:54.518Z,22.75
2018-07-22T19:27:25.517Z,22.76
2018-07-22T19:29:56.538Z,22.93
2018-07-22T19:32:27.502Z,23.13
2018-07-22T19:34:58.482Z,22.96
2018-07-22T19:37:29.488Z,23.08
2018-07-22T19:40:00.547Z,22.95
2018-07-22T19:42:31.526Z,23.09
2018-07-22T19:45:02.534Z,23.01
2018-07-22T19:47:33.498Z,23.02
2018-07-22T19:50:04.525Z,22.90
2018-07-22T19:52:35.475Z,22.97
2018-07-22T19:55:06.746Z,23.01
2018-07-22T19:57:37.633Z,23.13
2018-07-22T20:00:08.495Z,23.00
2018-07-22T20:02:39.614Z,22.79
2018-07-22T20:05:10.598Z,22.78
2018-07-22T20:07:41.518Z,22.80
2018-07-22T20:10:12.505Z,22.55
2018-07-22T20:12:43.727Z,22.75
2018-07-22T20:15:15.405Z,22.55
2018-07-22T20:17:46.566Z,22.66
2018-07-22T20:20:17.613Z,22.73
2018-07-22T20:22:48.663Z,22.58
2018-07-22T20:25:19.568Z,22.54
2018-07-22T20:27:50.621Z,22.67
2018-07-22T20:30:21.588Z,22.58
2018-07-22T20:32:52.648Z,22.59
2018-07-22T20:35:23.612Z,22.44
2018-07-22T20:37:54.586Z,22.53
2018-07-22T20:40:25.545Z,22.68
2018-07-22T20:42:56.626Z,22.37
2018-07-22T20:45:27.650Z,22.44
2018-07-22T20:47:58.766Z,22.36
2018-07-22T20:50:30.011Z,22.35
2018-07-22T20:53:01.388Z,22.23
2018-07-22T20:55:32.531Z,22.38
2018-07-22T20:58:03.503Z,22.26
2018-07-22T21:00:34.593Z,22.21
2018-07-22T21:03:07.029Z,22.35
2018-07-22T21:05:38.374Z,22.44
2018-07-22T21:08:09.564Z,22.31
2018-07-22T21:10:40.536Z,22.24
2018-07-22T21:13:28.424Z,22.27
2018-07-22T21:15:59.522Z,22.30
2018-07-22T21:18:30.614Z,22.21
2018-07-22T21:21:01.658Z,22.22
2018-07-22T21:23:32.484Z,22.18
2018-07-22T21:26:03.573Z,22.25
2018-07-22T21:28:34.578Z,22.18
2018-07-22T21:31:05.519Z,22.21
2018-07-22T21:33:36.521Z,22.29
2018-07-22T21:36:07.484Z,22.33
2018-07-22T21:38:38.516Z,22.35
2018-07-22T21:41:09.523Z,22.37
2018-07-22T21:43:40.537Z,22.33
2018-07-22T21:46:11.480Z,22.40
2018-07-22T21:48:42.512Z,22.29
2018-07-22T21:51:13.492Z,22.37
2018-07-22T21:53:44.466Z,22.30
2018-07-22T21:56:15.485Z,22.26
2018-07-22T21:58:46.479Z,22.29
2018-07-22T22:01:17.480Z,22.13
2018-07-22T22:03:48.494Z,22.14
2018-07-22T22:06:19.486Z,22.20
2018-07-22T22:08:50.484Z,22.13
2018-07-22T22:11:21.497Z,22.09
2018-07-22T22:13:52.445Z,22.10
2018-07-22T22:16:23.516Z,22.13
2018-07-22T22:18:54.498Z,22.10
2018-07-22T22:21:25.490Z,22.07
2018-07-22T22:23:56.485Z,22.08
2018-07-22T22:26:27.511Z,22.07
2018-07-22T22:28:58.497Z,21.98
2018-07-22T22:31:29.531Z,21.94
2018-07-22T22:34:00.513Z,21.95
2018-07-22T22:36:31.494Z,21.85
2018-07-22T22:39:02.536Z,21.95
2018-07-22T22:41:33.489Z,22.00
2018-07-22T22:44:04.529Z,21.90
2018-07-22T22:46:35.505Z,21.77
2018-07-22T22:49:06.557Z,21.74
2018-07-22T22:51:37.586Z,21.73
2018-07-22T22:54:08.563Z,21.86
2018-07-22T22:56:39.484Z,21.91
2018-07-22T22:59:19.616Z,21.92
2018-07-22T23:01:51.284Z,21.83
2018-07-22T23:04:22.677Z,21.78
2018-07-22T23:06:53.553Z,21.82
2018-07-22T23:09:24.505Z,21.82
2018-07-22T23:11:55.477Z,21.84
2018-07-22T23:14:26.502Z,21.85
2018-07-22T23:16:57.525Z,21.84
2018-07-22T23:19:28.481Z,21.81
2018-07-22T23:21:59.493Z,21.75
2018-07-22T23:24:30.542Z,21.81
2018-07-22T23:27:01.510Z,21.69
2018-07-22T23:29:33.224Z,21.68
2018-07-22T23:32:04.669Z,21.74
2018-07-22T23:34:35.529Z,21.65
2018-07-22T23:37:06.485Z,21.68
2018-07-22T23:39:37.497Z,21.71
2018-07-22T23:42:08.996Z,21.75
2018-07-22T23:44:40.207Z,21.65
2018-07-22T23:47:11.441Z,21.58
2018-07-22T23:49:42.484Z,21.49
2018-07-22T23:52:13.466Z,21.53
2018-07-22T23:54:44.457Z,21.55
2018-07-22T23:57:15.505Z,21.55
2018-07-22T23:59:46.465Z,21.49
